sensor_id;sensor_type;location;lat;lon;timestamp;P1;durP1;ratioP1;P2;durP2;ratioP2
63016;SDS011;50274;45.640;11.756;2022-12-18T00:00:40;7.22;;;3.80;;
63016;SDS011;50274;45.640;11.756;2022-12-18T00:03:07;8.85;;;4.50;;
63016;SDS011;50274;45.640;11.756;2022-12-18T00:05:33;8.30;;;4.37;;
63016;SDS011;50274;45.640;11.756;2022-12-18T00:07:58;8.82;;;4.07;;
63016;SDS011;50274;45.640;11.756;2022-12-18T00:10:24;8.15;;;4.30;;
63016;SDS011;50274;45.640;11.756;2022-12-18T00:12:50;8.60;;;4.20;;
63016;SDS011;50274;45.640;11.756;2022-12-18T00:15:16;7.38;;;3.40;;
63016;SDS011;50274;45.640;11.756;2022-12-18T00:17:42;7.73;;;3.53;;
63016;SDS011;50274;45.640;11.756;2022-12-18T00:20:08;8.50;;;3.70;;
63016;SDS011;50274;45.640;11.756;2022-12-18T00:22:34;6.45;;;3.47;;
63016;SDS011;50274;45.640;11.756;2022-12-18T00:25:00;7.43;;;3.20;;
63016;SDS011;50274;45.640;11.756;2022-12-18T00:27:26;7.07;;;3.10;;
63016;SDS011;50274;45.640;11.756;2022-12-18T00:29:51;7.10;;;3.13;;
63016;SDS011;50274;45.640;11.756;2022-12-18T00:32:17;6.83;;;3.17;;
63016;SDS011;50274;45.640;11.756;2022-12-18T00:34:43;8.43;;;4.25;;
63016;SDS011;50274;45.640;11.756;2022-12-18T00:37:09;7.57;;;3.97;;
63016;SDS011;50274;45.640;11.756;2022-12-18T00:39:35;7.63;;;3.90;;
63016;SDS011;50274;45.640;11.756;2022-12-18T00:42:01;8.57;;;3.97;;
63016;SDS011;50274;45.640;11.756;2022-12-18T00:44:45;7.57;;;3.45;;
63016;SDS011;50274;45.640;11.756;2022-12-18T00:47:11;9.48;;;4.68;;
63016;SDS011;50274;45.640;11.756;2022-12-18T00:49:37;9.70;;;5.50;;
63016;SDS011;50274;45.640;11.756;2022-12-18T00:52:03;9.37;;;4.33;;
63016;SDS011;50274;45.640;11.756;2022-12-18T00:54:29;8.95;;;4.40;;
63016;SDS011;50274;45.640;11.756;2022-12-18T00:56:55;8.02;;;4.10;;
63016;SDS011;50274;45.640;11.756;2022-12-18T00:59:21;8.50;;;3.80;;
63016;SDS011;50274;45.640;11.756;2022-12-18T01:01:46;8.25;;;4.50;;
63016;SDS011;50274;45.640;11.756;2022-12-18T01:04:13;10.30;;;5.30;;
63016;SDS011;50274;45.640;11.756;2022-12-18T01:06:39;7.30;;;3.85;;
63016;SDS011;50274;45.640;11.756;2022-12-18T01:09:05;7.40;;;4.28;;
63016;SDS011;50274;45.640;11.756;2022-12-18T01:11:31;8.18;;;3.83;;
63016;SDS011;50274;45.640;11.756;2022-12-18T01:13:57;8.87;;;4.20;;
63016;SDS011;50274;45.640;11.756;2022-12-18T01:16:24;7.45;;;4.20;;
63016;SDS011;50274;45.640;11.756;2022-12-18T01:18:51;8.52;;;4.22;;
63016;SDS011;50274;45.640;11.756;2022-12-18T01:21:18;7.57;;;4.03;;
63016;SDS011;50274;45.640;11.756;2022-12-18T01:23:45;7.37;;;3.70;;
63016;SDS011;50274;45.640;11.756;2022-12-18T01:26:13;7.82;;;4.45;;
63016;SDS011;50274;45.640;11.756;2022-12-18T01:28:40;8.18;;;4.18;;
63016;SDS011;50274;45.640;11.756;2022-12-18T01:31:23;8.70;;;4.50;;
63016;SDS011;50274;45.640;11.756;2022-12-18T01:33:50;8.63;;;4.72;;
63016;SDS011;50274;45.640;11.756;2022-12-18T01:36:21;9.63;;;5.23;;
63016;SDS011;50274;45.640;11.756;2022-12-18T01:38:49;8.95;;;4.78;;
63016;SDS011;50274;45.640;11.756;2022-12-18T01:41:16;8.57;;;4.40;;
63016;SDS011;50274;45.640;11.756;2022-12-18T01:43:49;8.90;;;4.82;;
63016;SDS011;50274;45.640;11.756;2022-12-18T01:46:21;8.68;;;4.40;;
63016;SDS011;50274;45.640;11.756;2022-12-18T01:48:49;7.50;;;4.00;;
63016;SDS011;50274;45.640;11.756;2022-12-18T01:51:18;9.73;;;4.32;;
63016;SDS011;50274;45.640;11.756;2022-12-18T01:53:45;9.07;;;4.85;;
63016;SDS011;50274;45.640;11.756;2022-12-18T01:56:14;9.43;;;4.70;;
63016;SDS011;50274;45.640;11.756;2022-12-18T02:01:21;8.63;;;4.30;;
63016;SDS011;50274;45.640;11.756;2022-12-18T02:03:48;7.13;;;3.55;;
63016;SDS011;50274;45.640;11.756;2022-12-18T02:06:16;9.27;;;3.92;;
63016;SDS011;50274;45.640;11.756;2022-12-18T02:14:41;6.23;;;3.57;;
63016;SDS011;50274;45.640;11.756;2022-12-18T02:23:24;8.02;;;4.25;;
63016;SDS011;50274;45.640;11.756;2022-12-18T02:28:33;7.60;;;3.37;;
63016;SDS011;50274;45.640;11.756;2022-12-18T02:31:03;7.45;;;3.53;;
63016;SDS011;50274;45.640;11.756;2022-12-18T02:33:33;8.15;;;3.65;;
63016;SDS011;50274;45.640;11.756;2022-12-18T02:36:00;7.45;;;3.17;;
63016;SDS011;50274;45.640;11.756;2022-12-18T02:38:27;7.47;;;4.18;;
63016;SDS011;50274;45.640;11.756;2022-12-18T02:40:55;7.30;;;3.63;;
63016;SDS011;50274;45.640;11.756;2022-12-18T02:43:21;7.25;;;3.90;;
63016;SDS011;50274;45.640;11.756;2022-12-18T02:45:48;8.15;;;4.15;;
63016;SDS011;50274;45.640;11.756;2022-12-18T02:48:24;9.13;;;4.40;;
63016;SDS011;50274;45.640;11.756;2022-12-18T02:51:18;8.43;;;4.17;;
63016;SDS011;50274;45.640;11.756;2022-12-18T02:54:04;8.70;;;4.07;;
63016;SDS011;50274;45.640;11.756;2022-12-18T02:57:05;9.98;;;4.22;;
63016;SDS011;50274;45.640;11.756;2022-12-18T03:00:10;14.35;;;7.65;;
63016;SDS011;50274;45.640;11.756;2022-12-18T03:05:47;9.73;;;5.10;;
63016;SDS011;50274;45.640;11.756;2022-12-18T03:08:31;10.80;;;5.35;;
63016;SDS011;50274;45.640;11.756;2022-12-18T03:11:05;9.82;;;4.55;;
63016;SDS011;50274;45.640;11.756;2022-12-18T03:13:34;9.52;;;5.20;;
63016;SDS011;50274;45.640;11.756;2022-12-18T03:16:06;8.63;;;4.60;;
63016;SDS011;50274;45.640;11.756;2022-12-18T03:18:42;9.57;;;4.57;;
63016;SDS011;50274;45.640;11.756;2022-12-18T03:21:17;9.98;;;4.60;;
63016;SDS011;50274;45.640;11.756;2022-12-18T03:23:47;9.95;;;4.68;;
63016;SDS011;50274;45.640;11.756;2022-12-18T03:26:16;9.18;;;4.38;;
63016;SDS011;50274;45.640;11.756;2022-12-18T03:28:51;10.63;;;4.80;;
63016;SDS011;50274;45.640;11.756;2022-12-18T03:31:22;11.50;;;5.23;;
63016;SDS011;50274;45.640;11.756;2022-12-18T03:33:55;11.07;;;5.00;;
63016;SDS011;50274;45.640;11.756;2022-12-18T03:36:25;10.05;;;5.00;;
63016;SDS011;50274;45.640;11.756;2022-12-18T03:38:51;10.27;;;4.63;;
63016;SDS011;50274;45.640;11.756;2022-12-18T03:41:29;9.87;;;4.70;;
63016;SDS011;50274;45.640;11.756;2022-12-18T03:44:27;8.10;;;4.43;;
63016;SDS011;50274;45.640;11.756;2022-12-18T03:50:02;10.10;;;4.63;;
63016;SDS011;50274;45.640;11.756;2022-12-18T03:52:36;10.18;;;4.20;;
63016;SDS011;50274;45.640;11.756;2022-12-18T03:55:08;9.23;;;4.10;;
63016;SDS011;50274;45.640;11.756;2022-12-18T03:57:35;8.77;;;3.83;;
63016;SDS011;50274;45.640;11.756;2022-12-18T04:00:07;10.27;;;5.15;;
63016;SDS011;50274;45.640;11.756;2022-12-18T04:02:36;9.90;;;4.97;;
63016;SDS011;50274;45.640;11.756;2022-12-18T04:05:05;9.95;;;4.53;;
63016;SDS011;50274;45.640;11.756;2022-12-18T04:07:33;9.47;;;4.63;;
63016;SDS011;50274;45.640;11.756;2022-12-18T04:10:00;11.77;;;5.13;;
63016;SDS011;50274;45.640;11.756;2022-12-18T04:12:29;8.88;;;4.90;;
63016;SDS011;50274;45.640;11.756;2022-12-18T04:14:55;11.20;;;5.22;;
63016;SDS011;50274;45.640;11.756;2022-12-18T04:17:21;8.98;;;4.50;;
63016;SDS011;50274;45.640;11.756;2022-12-18T04:19:47;8.20;;;3.90;;
63016;SDS011;50274;45.640;11.756;2022-12-18T04:22:13;7.90;;;4.28;;
63016;SDS011;50274;45.640;11.756;2022-12-18T04:24:39;8.55;;;4.60;;
63016;SDS011;50274;45.640;11.756;2022-12-18T04:27:05;8.57;;;4.20;;
63016;SDS011;50274;45.640;11.756;2022-12-18T04:29:31;8.75;;;4.25;;
63016;SDS011;50274;45.640;11.756;2022-12-18T04:31:57;10.82;;;4.72;;
63016;SDS011;50274;45.640;11.756;2022-12-18T04:34:23;8.53;;;4.43;;
63016;SDS011;50274;45.640;11.756;2022-12-18T04:36:48;8.85;;;4.30;;
63016;SDS011;50274;45.640;11.756;2022-12-18T04:39:14;8.88;;;4.30;;
63016;SDS011;50274;45.640;11.756;2022-12-18T04:41:40;10.60;;;4.73;;
63016;SDS011;50274;45.640;11.756;2022-12-18T04:44:06;7.95;;;4.25;;
63016;SDS011;50274;45.640;11.756;2022-12-18T04:46:32;8.00;;;4.00;;
63016;SDS011;50274;45.640;11.756;2022-12-18T04:48:58;9.90;;;5.23;;
63016;SDS011;50274;45.640;11.756;2022-12-18T04:51:23;8.63;;;3.90;;
63016;SDS011;50274;45.640;11.756;2022-12-18T04:53:49;9.02;;;4.93;;
63016;SDS011;50274;45.640;11.756;2022-12-18T04:56:15;10.23;;;4.50;;
63016;SDS011;50274;45.640;11.756;2022-12-18T04:58:42;8.68;;;4.75;;
63016;SDS011;50274;45.640;11.756;2022-12-18T05:01:09;10.25;;;4.75;;
63016;SDS011;50274;45.640;11.756;2022-12-18T05:03:37;10.75;;;4.63;;
63016;SDS011;50274;45.640;11.756;2022-12-18T05:06:04;8.00;;;4.25;;
63016;SDS011;50274;45.640;11.756;2022-12-18T05:08:31;9.20;;;4.13;;
63016;SDS011;50274;45.640;11.756;2022-12-18T05:11:08;10.00;;;4.68;;
63016;SDS011;50274;45.640;11.756;2022-12-18T05:13:35;8.73;;;5.03;;
63016;SDS011;50274;45.640;11.756;2022-12-18T05:16:03;9.70;;;4.40;;
63016;SDS011;50274;45.640;11.756;2022-12-18T05:18:29;9.00;;;4.07;;
63016;SDS011;50274;45.640;11.756;2022-12-18T05:20:56;9.50;;;4.17;;
63016;SDS011;50274;45.640;11.756;2022-12-18T05:23:23;9.35;;;4.40;;
63016;SDS011;50274;45.640;11.756;2022-12-18T05:25:52;9.35;;;4.72;;
63016;SDS011;50274;45.640;11.756;2022-12-18T05:28:20;7.43;;;3.83;;
63016;SDS011;50274;45.640;11.756;2022-12-18T05:30:50;10.38;;;5.10;;
63016;SDS011;50274;45.640;11.756;2022-12-18T05:33:18;10.60;;;5.13;;
63016;SDS011;50274;45.640;11.756;2022-12-18T05:35:44;9.80;;;4.68;;
63016;SDS011;50274;45.640;11.756;2022-12-18T05:38:19;9.68;;;5.03;;
63016;SDS011;50274;45.640;11.756;2022-12-18T05:40:47;10.30;;;4.88;;
63016;SDS011;50274;45.640;11.756;2022-12-18T05:43:15;8.50;;;4.13;;
63016;SDS011;50274;45.640;11.756;2022-12-18T05:45:42;8.97;;;4.80;;
63016;SDS011;50274;45.640;11.756;2022-12-18T05:48:08;8.27;;;4.32;;
63016;SDS011;50274;45.640;11.756;2022-12-18T05:50:35;8.88;;;4.30;;
63016;SDS011;50274;45.640;11.756;2022-12-18T05:53:02;9.20;;;4.72;;
63016;SDS011;50274;45.640;11.756;2022-12-18T05:55:28;8.80;;;4.10;;
63016;SDS011;50274;45.640;11.756;2022-12-18T05:57:54;7.93;;;4.10;;
63016;SDS011;50274;45.640;11.756;2022-12-18T06:00:20;9.60;;;4.63;;
63016;SDS011;50274;45.640;11.756;2022-12-18T06:02:46;10.50;;;4.55;;
63016;SDS011;50274;45.640;11.756;2022-12-18T06:05:12;9.80;;;4.87;;
63016;SDS011;50274;45.640;11.756;2022-12-18T06:07:38;9.15;;;4.03;;
63016;SDS011;50274;45.640;11.756;2022-12-18T06:10:04;8.50;;;4.25;;
63016;SDS011;50274;45.640;11.756;2022-12-18T06:12:30;7.93;;;4.33;;
63016;SDS011;50274;45.640;11.756;2022-12-18T06:14:58;9.45;;;3.92;;
63016;SDS011;50274;45.640;11.756;2022-12-18T06:17:29;8.70;;;4.60;;
63016;SDS011;50274;45.640;11.756;2022-12-18T06:19:55;8.05;;;4.00;;
63016;SDS011;50274;45.640;11.756;2022-12-18T06:22:21;9.47;;;4.90;;
63016;SDS011;50274;45.640;11.756;2022-12-18T06:24:47;9.93;;;4.87;;
63016;SDS011;50274;45.640;11.756;2022-12-18T06:27:13;10.15;;;4.65;;
63016;SDS011;50274;45.640;11.756;2022-12-18T06:29:39;9.05;;;4.63;;
63016;SDS011;50274;45.640;11.756;2022-12-18T06:32:05;9.43;;;4.50;;
63016;SDS011;50274;45.640;11.756;2022-12-18T06:34:31;8.73;;;3.90;;
63016;SDS011;50274;45.640;11.756;2022-12-18T06:36:58;9.48;;;4.70;;
63016;SDS011;50274;45.640;11.756;2022-12-18T06:39:24;10.43;;;4.88;;
63016;SDS011;50274;45.640;11.756;2022-12-18T06:41:52;11.73;;;5.50;;
63016;SDS011;50274;45.640;11.756;2022-12-18T06:44:18;10.50;;;5.33;;
63016;SDS011;50274;45.640;11.756;2022-12-18T06:46:43;11.93;;;6.13;;
63016;SDS011;50274;45.640;11.756;2022-12-18T06:49:09;13.23;;;6.88;;
63016;SDS011;50274;45.640;11.756;2022-12-18T06:51:35;11.40;;;6.10;;
63016;SDS011;50274;45.640;11.756;2022-12-18T06:54:01;12.50;;;6.43;;
63016;SDS011;50274;45.640;11.756;2022-12-18T06:56:27;9.82;;;5.30;;
63016;SDS011;50274;45.640;11.756;2022-12-18T06:58:53;10.15;;;4.88;;
63016;SDS011;50274;45.640;11.756;2022-12-18T07:01:20;12.67;;;5.53;;
63016;SDS011;50274;45.640;11.756;2022-12-18T07:03:47;10.07;;;5.05;;
63016;SDS011;50274;45.640;11.756;2022-12-18T07:06:18;10.05;;;5.47;;
63016;SDS011;50274;45.640;11.756;2022-12-18T07:08:45;10.15;;;4.80;;
63016;SDS011;50274;45.640;11.756;2022-12-18T07:11:12;10.55;;;5.47;;
63016;SDS011;50274;45.640;11.756;2022-12-18T07:13:38;11.20;;;5.60;;
63016;SDS011;50274;45.640;11.756;2022-12-18T07:16:05;12.23;;;6.20;;
63016;SDS011;50274;45.640;11.756;2022-12-18T07:18:33;9.63;;;4.93;;
63016;SDS011;50274;45.640;11.756;2022-12-18T07:21:02;12.98;;;6.35;;
63016;SDS011;50274;45.640;11.756;2022-12-18T07:23:29;11.93;;;5.33;;
63016;SDS011;50274;45.640;11.756;2022-12-18T07:25:55;11.80;;;6.63;;
63016;SDS011;50274;45.640;11.756;2022-12-18T07:28:20;10.52;;;6.00;;
63016;SDS011;50274;45.640;11.756;2022-12-18T07:30:46;13.80;;;7.60;;
63016;SDS011;50274;45.640;11.756;2022-12-18T07:33:12;11.98;;;6.65;;
63016;SDS011;50274;45.640;11.756;2022-12-18T07:35:38;13.87;;;6.97;;
63016;SDS011;50274;45.640;11.756;2022-12-18T07:38:04;13.18;;;7.15;;
63016;SDS011;50274;45.640;11.756;2022-12-18T07:40:30;14.20;;;7.18;;
63016;SDS011;50274;45.640;11.756;2022-12-18T07:42:55;10.40;;;5.70;;
63016;SDS011;50274;45.640;11.756;2022-12-18T07:45:21;12.80;;;6.97;;
63016;SDS011;50274;45.640;11.756;2022-12-18T07:47:47;15.23;;;8.90;;
63016;SDS011;50274;45.640;11.756;2022-12-18T07:50:13;17.17;;;8.23;;
63016;SDS011;50274;45.640;11.756;2022-12-18T07:52:39;17.02;;;7.90;;
63016;SDS011;50274;45.640;11.756;2022-12-18T07:55:05;16.80;;;9.03;;
63016;SDS011;50274;45.640;11.756;2022-12-18T07:57:31;18.35;;;9.05;;
63016;SDS011;50274;45.640;11.756;2022-12-18T07:59:56;14.88;;;8.52;;
63016;SDS011;50274;45.640;11.756;2022-12-18T08:02:22;13.57;;;7.87;;
63016;SDS011;50274;45.640;11.756;2022-12-18T08:04:48;14.25;;;8.52;;
63016;SDS011;50274;45.640;11.756;2022-12-18T08:07:14;13.20;;;8.00;;
63016;SDS011;50274;45.640;11.756;2022-12-18T08:09:40;12.60;;;7.50;;
63016;SDS011;50274;45.640;11.756;2022-12-18T08:12:05;12.63;;;7.57;;
63016;SDS011;50274;45.640;11.756;2022-12-18T08:14:31;14.50;;;7.85;;
63016;SDS011;50274;45.640;11.756;2022-12-18T08:16:57;15.47;;;8.10;;
63016;SDS011;50274;45.640;11.756;2022-12-18T08:19:23;14.38;;;8.32;;
63016;SDS011;50274;45.640;11.756;2022-12-18T08:21:49;13.13;;;6.82;;
63016;SDS011;50274;45.640;11.756;2022-12-18T08:24:15;12.40;;;7.33;;
63016;SDS011;50274;45.640;11.756;2022-12-18T08:26:41;13.20;;;7.13;;
63016;SDS011;50274;45.640;11.756;2022-12-18T08:29:08;11.63;;;6.70;;
63016;SDS011;50274;45.640;11.756;2022-12-18T08:31:35;13.90;;;7.47;;
63016;SDS011;50274;45.640;11.756;2022-12-18T08:34:01;16.92;;;8.73;;
63016;SDS011;50274;45.640;11.756;2022-12-18T08:36:27;21.85;;;10.43;;
63016;SDS011;50274;45.640;11.756;2022-12-18T08:38:53;16.92;;;8.88;;
63016;SDS011;50274;45.640;11.756;2022-12-18T08:41:19;17.52;;;10.38;;
63016;SDS011;50274;45.640;11.756;2022-12-18T08:43:46;15.57;;;9.50;;
63016;SDS011;50274;45.640;11.756;2022-12-18T08:46:32;16.23;;;9.45;;
63016;SDS011;50274;45.640;11.756;2022-12-18T08:49:00;20.85;;;10.60;;
63016;SDS011;50274;45.640;11.756;2022-12-18T08:51:27;16.17;;;10.15;;
63016;SDS011;50274;45.640;11.756;2022-12-18T08:53:52;21.77;;;11.63;;
63016;SDS011;50274;45.640;11.756;2022-12-18T08:56:18;16.48;;;9.95;;
63016;SDS011;50274;45.640;11.756;2022-12-18T08:58:44;17.45;;;10.05;;
63016;SDS011;50274;45.640;11.756;2022-12-18T09:01:11;17.13;;;9.97;;
63016;SDS011;50274;45.640;11.756;2022-12-18T09:03:38;15.80;;;10.18;;
63016;SDS011;50274;45.640;11.756;2022-12-18T09:06:04;16.73;;;10.32;;
63016;SDS011;50274;45.640;11.756;2022-12-18T09:08:30;12.98;;;8.75;;
63016;SDS011;50274;45.640;11.756;2022-12-18T09:11:01;18.83;;;10.67;;
63016;SDS011;50274;45.640;11.756;2022-12-18T09:13:27;20.08;;;10.63;;
63016;SDS011;50274;45.640;11.756;2022-12-18T09:15:54;17.27;;;10.77;;
63016;SDS011;50274;45.640;11.756;2022-12-18T09:18:21;17.92;;;11.13;;
63016;SDS011;50274;45.640;11.756;2022-12-18T09:20:48;15.37;;;8.70;;
63016;SDS011;50274;45.640;11.756;2022-12-18T09:23:16;14.93;;;8.48;;
63016;SDS011;50274;45.640;11.756;2022-12-18T09:25:42;13.43;;;7.75;;
63016;SDS011;50274;45.640;11.756;2022-12-18T09:28:12;12.25;;;7.60;;
63016;SDS011;50274;45.640;11.756;2022-12-18T09:30:40;12.93;;;7.50;;
63016;SDS011;50274;45.640;11.756;2022-12-18T09:33:09;12.05;;;7.70;;
63016;SDS011;50274;45.640;11.756;2022-12-18T09:35:39;13.45;;;7.93;;
63016;SDS011;50274;45.640;11.756;2022-12-18T09:38:06;10.25;;;6.90;;
63016;SDS011;50274;45.640;11.756;2022-12-18T09:40:35;15.90;;;10.68;;
63016;SDS011;50274;45.640;11.756;2022-12-18T09:43:06;13.33;;;9.03;;
63016;SDS011;50274;45.640;11.756;2022-12-18T09:45:42;14.15;;;8.38;;
63016;SDS011;50274;45.640;11.756;2022-12-18T09:48:15;14.77;;;9.18;;
63016;SDS011;50274;45.640;11.756;2022-12-18T09:51:14;18.85;;;10.48;;
63016;SDS011;50274;45.640;11.756;2022-12-18T09:53:46;15.30;;;9.88;;
63016;SDS011;50274;45.640;11.756;2022-12-18T09:56:19;16.03;;;9.30;;
63016;SDS011;50274;45.640;11.756;2022-12-18T09:58:58;13.73;;;8.65;;
63016;SDS011;50274;45.640;11.756;2022-12-18T10:01:24;17.13;;;10.55;;
63016;SDS011;50274;45.640;11.756;2022-12-18T10:03:52;14.98;;;10.05;;
63016;SDS011;50274;45.640;11.756;2022-12-18T10:09:01;13.60;;;8.23;;
63016;SDS011;50274;45.640;11.756;2022-12-18T10:11:43;11.52;;;7.40;;
63016;SDS011;50274;45.640;11.756;2022-12-18T10:19:56;12.80;;;7.47;;
63016;SDS011;50274;45.640;11.756;2022-12-18T10:27:42;12.00;;;7.28;;
63016;SDS011;50274;45.640;11.756;2022-12-18T10:30:18;12.18;;;7.50;;
63016;SDS011;50274;45.640;11.756;2022-12-18T10:32:45;11.67;;;7.23;;
63016;SDS011;50274;45.640;11.756;2022-12-18T10:35:15;11.23;;;7.90;;
63016;SDS011;50274;45.640;11.756;2022-12-18T10:40:55;12.57;;;6.95;;
63016;SDS011;50274;45.640;11.756;2022-12-18T10:43:30;11.80;;;7.07;;
63016;SDS011;50274;45.640;11.756;2022-12-18T10:48:39;12.68;;;7.40;;
63016;SDS011;50274;45.640;11.756;2022-12-18T10:51:06;10.05;;;6.63;;
63016;SDS011;50274;45.640;11.756;2022-12-18T10:53:33;12.55;;;6.82;;
63016;SDS011;50274;45.640;11.756;2022-12-18T10:56:03;12.07;;;7.35;;
63016;SDS011;50274;45.640;11.756;2022-12-18T10:58:32;10.70;;;6.50;;
63016;SDS011;50274;45.640;11.756;2022-12-18T11:03:36;10.52;;;6.50;;
63016;SDS011;50274;45.640;11.756;2022-12-18T11:08:34;10.27;;;6.03;;
63016;SDS011;50274;45.640;11.756;2022-12-18T11:11:00;12.73;;;5.20;;
63016;SDS011;50274;45.640;11.756;2022-12-18T11:13:28;8.52;;;5.15;;
63016;SDS011;50274;45.640;11.756;2022-12-18T11:15:55;8.30;;;5.40;;
63016;SDS011;50274;45.640;11.756;2022-12-18T11:18:29;8.55;;;5.30;;
63016;SDS011;50274;45.640;11.756;2022-12-18T11:21:06;9.60;;;6.00;;
63016;SDS011;50274;45.640;11.756;2022-12-18T11:23:34;9.20;;;5.40;;
63016;SDS011;50274;45.640;11.756;2022-12-18T11:26:02;8.65;;;4.88;;
63016;SDS011;50274;45.640;11.756;2022-12-18T11:28:34;8.75;;;5.25;;
63016;SDS011;50274;45.640;11.756;2022-12-18T11:33:34;10.27;;;5.90;;
63016;SDS011;50274;45.640;11.756;2022-12-18T11:36:02;10.13;;;5.77;;
63016;SDS011;50274;45.640;11.756;2022-12-18T11:38:30;9.45;;;6.22;;
63016;SDS011;50274;45.640;11.756;2022-12-18T11:44:31;8.60;;;5.57;;
63016;SDS011;50274;45.640;11.756;2022-12-18T11:50:14;10.50;;;5.80;;
63016;SDS011;50274;45.640;11.756;2022-12-18T11:52:43;12.20;;;7.28;;
63016;SDS011;50274;45.640;11.756;2022-12-18T11:55:13;10.10;;;5.90;;
63016;SDS011;50274;45.640;11.756;2022-12-18T12:00:36;9.45;;;6.10;;
63016;SDS011;50274;45.640;11.756;2022-12-18T12:06:13;10.82;;;6.90;;
63016;SDS011;50274;45.640;11.756;2022-12-18T12:09:04;10.52;;;6.05;;
63016;SDS011;50274;45.640;11.756;2022-12-18T12:11:43;9.95;;;5.90;;
63016;SDS011;50274;45.640;11.756;2022-12-18T12:14:37;10.05;;;6.50;;
63016;SDS011;50274;45.640;11.756;2022-12-18T12:20:14;9.57;;;5.60;;
63016;SDS011;50274;45.640;11.756;2022-12-18T12:25:53;9.70;;;6.20;;
63016;SDS011;50274;45.640;11.756;2022-12-18T12:31:18;11.63;;;6.77;;
63016;SDS011;50274;45.640;11.756;2022-12-18T12:39:30;11.73;;;7.20;;
63016;SDS011;50274;45.640;11.756;2022-12-18T12:42:00;10.70;;;6.43;;
63016;SDS011;50274;45.640;11.756;2022-12-18T12:44:47;11.83;;;7.33;;
63016;SDS011;50274;45.640;11.756;2022-12-18T12:47:20;11.55;;;6.85;;
63016;SDS011;50274;45.640;11.756;2022-12-18T12:50:11;12.20;;;6.82;;
63016;SDS011;50274;45.640;11.756;2022-12-18T12:52:50;10.90;;;6.88;;
63016;SDS011;50274;45.640;11.756;2022-12-18T12:55:22;11.32;;;7.18;;
63016;SDS011;50274;45.640;11.756;2022-12-18T12:58:10;10.63;;;7.07;;
63016;SDS011;50274;45.640;11.756;2022-12-18T13:03:43;11.65;;;6.95;;
63016;SDS011;50274;45.640;11.756;2022-12-18T13:08:54;11.57;;;7.22;;
63016;SDS011;50274;45.640;11.756;2022-12-18T13:14:36;10.57;;;6.57;;
63016;SDS011;50274;45.640;11.756;2022-12-18T13:17:16;10.20;;;6.10;;
63016;SDS011;50274;45.640;11.756;2022-12-18T13:19:55;10.85;;;6.50;;
63016;SDS011;50274;45.640;11.756;2022-12-18T13:22:36;9.93;;;5.97;;
63016;SDS011;50274;45.640;11.756;2022-12-18T13:28:02;10.15;;;6.20;;
63016;SDS011;50274;45.640;11.756;2022-12-18T13:35:40;9.77;;;6.10;;
63016;SDS011;50274;45.640;11.756;2022-12-18T13:38:55;9.83;;;5.83;;
63016;SDS011;50274;45.640;11.756;2022-12-18T13:43:44;10.73;;;6.47;;
63016;SDS011;50274;45.640;11.756;2022-12-18T13:46:27;9.75;;;6.43;;
63016;SDS011;50274;45.640;11.756;2022-12-18T13:48:57;9.88;;;6.30;;
63016;SDS011;50274;45.640;11.756;2022-12-18T13:51:29;10.17;;;6.40;;
63016;SDS011;50274;45.640;11.756;2022-12-18T13:53:59;9.60;;;5.65;;
63016;SDS011;50274;45.640;11.756;2022-12-18T13:56:28;9.40;;;5.68;;
63016;SDS011;50274;45.640;11.756;2022-12-18T14:01:49;12.05;;;6.95;;
63016;SDS011;50274;45.640;11.756;2022-12-18T14:04:22;10.90;;;6.87;;
63016;SDS011;50274;45.640;11.756;2022-12-18T14:06:56;12.15;;;7.07;;
63016;SDS011;50274;45.640;11.756;2022-12-18T14:09:28;11.82;;;7.57;;
63016;SDS011;50274;45.640;11.756;2022-12-18T14:12:00;11.38;;;7.15;;
63016;SDS011;50274;45.640;11.756;2022-12-18T14:14:45;11.32;;;7.38;;
63016;SDS011;50274;45.640;11.756;2022-12-18T14:17:13;9.63;;;6.37;;
63016;SDS011;50274;45.640;11.756;2022-12-18T14:19:44;11.15;;;6.60;;
63016;SDS011;50274;45.640;11.756;2022-12-18T14:22:13;10.73;;;6.00;;
63016;SDS011;50274;45.640;11.756;2022-12-18T14:24:42;9.73;;;5.80;;
63016;SDS011;50274;45.640;11.756;2022-12-18T14:27:21;9.30;;;5.57;;
63016;SDS011;50274;45.640;11.756;2022-12-18T14:29:49;10.15;;;5.82;;
63016;SDS011;50274;45.640;11.756;2022-12-18T14:32:18;10.55;;;5.68;;
63016;SDS011;50274;45.640;11.756;2022-12-18T14:37:12;9.57;;;5.90;;
63016;SDS011;50274;45.640;11.756;2022-12-18T14:39:39;10.15;;;6.22;;
63016;SDS011;50274;45.640;11.756;2022-12-18T14:42:05;9.95;;;5.80;;
63016;SDS011;50274;45.640;11.756;2022-12-18T14:44:36;9.98;;;5.72;;
63016;SDS011;50274;45.640;11.756;2022-12-18T14:47:01;10.30;;;6.37;;
63016;SDS011;50274;45.640;11.756;2022-12-18T14:49:31;10.02;;;6.10;;
63016;SDS011;50274;45.640;11.756;2022-12-18T14:52:05;11.05;;;6.10;;
63016;SDS011;50274;45.640;11.756;2022-12-18T14:54:45;9.73;;;6.20;;
63016;SDS011;50274;45.640;11.756;2022-12-18T14:57:20;10.47;;;6.23;;
63016;SDS011;50274;45.640;11.756;2022-12-18T14:59:51;11.50;;;7.15;;
63016;SDS011;50274;45.640;11.756;2022-12-18T15:02:24;12.73;;;7.68;;
63016;SDS011;50274;45.640;11.756;2022-12-18T15:05:02;11.93;;;7.00;;
63016;SDS011;50274;45.640;11.756;2022-12-18T15:07:39;11.30;;;6.80;;
63016;SDS011;50274;45.640;11.756;2022-12-18T15:12:47;11.05;;;6.70;;
63016;SDS011;50274;45.640;11.756;2022-12-18T15:20:41;12.27;;;7.00;;
63016;SDS011;50274;45.640;11.756;2022-12-18T15:23:22;10.63;;;6.53;;
63016;SDS011;50274;45.640;11.756;2022-12-18T15:25:58;11.65;;;7.15;;
63016;SDS011;50274;45.640;11.756;2022-12-18T15:33:40;11.73;;;6.90;;
63016;SDS011;50274;45.640;11.756;2022-12-18T15:36:25;11.97;;;7.33;;
63016;SDS011;50274;45.640;11.756;2022-12-18T15:38:56;10.80;;;6.40;;
63016;SDS011;50274;45.640;11.756;2022-12-18T15:41:23;12.77;;;7.10;;
63016;SDS011;50274;45.640;11.756;2022-12-18T15:43:50;11.95;;;6.70;;
63016;SDS011;50274;45.640;11.756;2022-12-18T15:46:21;12.15;;;7.32;;
63016;SDS011;50274;45.640;11.756;2022-12-18T15:48:49;11.40;;;6.10;;
63016;SDS011;50274;45.640;11.756;2022-12-18T15:51:20;14.68;;;7.07;;
63016;SDS011;50274;45.640;11.756;2022-12-18T15:53:49;12.25;;;7.30;;
63016;SDS011;50274;45.640;11.756;2022-12-18T15:56:18;12.32;;;7.20;;
63016;SDS011;50274;45.640;11.756;2022-12-18T15:59:04;12.27;;;6.70;;
63016;SDS011;50274;45.640;11.756;2022-12-18T16:01:40;13.37;;;6.97;;
63016;SDS011;50274;45.640;11.756;2022-12-18T16:04:08;14.93;;;7.65;;
63016;SDS011;50274;45.640;11.756;2022-12-18T16:06:38;13.00;;;7.90;;
63016;SDS011;50274;45.640;11.756;2022-12-18T16:09:05;14.13;;;7.75;;
63016;SDS011;50274;45.640;11.756;2022-12-18T16:11:31;13.53;;;8.27;;
63016;SDS011;50274;45.640;11.756;2022-12-18T16:14:27;12.73;;;7.27;;
63016;SDS011;50274;45.640;11.756;2022-12-18T16:16:55;16.05;;;8.73;;
63016;SDS011;50274;45.640;11.756;2022-12-18T16:19:23;14.48;;;8.18;;
63016;SDS011;50274;45.640;11.756;2022-12-18T16:21:53;15.70;;;8.70;;
63016;SDS011;50274;45.640;11.756;2022-12-18T16:24:22;14.27;;;8.45;;
63016;SDS011;50274;45.640;11.756;2022-12-18T16:26:58;14.37;;;8.47;;
63016;SDS011;50274;45.640;11.756;2022-12-18T16:29:25;13.48;;;7.82;;
63016;SDS011;50274;45.640;11.756;2022-12-18T16:31:56;15.13;;;8.77;;
63016;SDS011;50274;45.640;11.756;2022-12-18T16:34:30;13.57;;;8.30;;
63016;SDS011;50274;45.640;11.756;2022-12-18T16:36:58;15.68;;;8.02;;